createdAt,value
2022-11-28T00:01:25.448Z,-1.20
2022-11-28T00:03:52.478Z,-1.40
2022-11-28T00:06:20.046Z,-1.50
2022-11-28T00:08:47.344Z,-1.50
2022-11-28T00:11:16.050Z,-1.50
2022-11-28T00:13:43.154Z,-1.40
2022-11-28T00:16:15.931Z,-1.50
2022-11-28T00:18:42.926Z,-1.50
2022-11-28T00:21:13.269Z,-1.30
2022-11-28T00:23:40.937Z,-1.50
2022-11-28T00:26:13.961Z,-1.40
2022-11-28T00:28:40.978Z,-0.90
2022-11-28T00:31:13.381Z,-1.50
2022-11-28T00:33:40.367Z,-1.60
2022-11-28T00:36:07.599Z,-1.50
2022-11-28T00:38:34.594Z,-1.40
2022-11-28T00:41:07.843Z,-1.40
2022-11-28T00:43:35.043Z,-1.50
2022-11-28T00:46:03.010Z,-1.50
2022-11-28T00:48:30.461Z,-1.60
2022-11-28T00:51:12.972Z,-1.10
2022-11-28T00:53:42.547Z,-1.60
2022-11-28T00:56:11.873Z,-1.60
2022-11-28T00:58:39.438Z,-1.60
2022-11-28T01:01:21.155Z,-1.50
2022-11-28T01:03:50.172Z,-1.60
2022-11-28T01:06:29.559Z,-1.60
2022-11-28T01:09:02.481Z,-1.60
2022-11-28T01:11:29.695Z,-1.60
2022-11-28T01:13:58.585Z,-1.60
2022-11-28T01:16:26.098Z,-1.40
2022-11-28T01:18:53.584Z,-1.40
2022-11-28T01:21:21.478Z,-1.40
2022-11-28T01:23:48.844Z,-1.40
2022-11-28T01:26:25.978Z,-1.40
2022-11-28T01:28:53.800Z,-1.40
2022-11-28T01:31:26.115Z,-1.40
2022-11-28T01:33:54.020Z,-1.40
2022-11-28T01:36:21.581Z,-1.50
2022-11-28T01:38:49.449Z,-1.40
2022-11-28T01:41:19.958Z,-1.50
2022-11-28T01:44:25.742Z,-1.50
2022-11-28T01:46:52.645Z,-1.40
2022-11-28T01:49:24.897Z,-1.60
2022-11-28T01:51:56.297Z,-0.90
2022-11-28T01:54:25.469Z,-1.50
2022-11-28T01:56:57.345Z,-1.50
2022-11-28T01:59:27.769Z,-1.60
2022-11-28T02:01:55.435Z,-1.50
2022-11-28T02:04:26.078Z,-1.50
2022-11-28T02:06:52.963Z,-1.50
2022-11-28T02:09:19.960Z,-1.60
2022-11-28T02:12:19.662Z,-1.70
2022-11-28T02:15:10.816Z,-1.50
2022-11-28T02:17:54.296Z,-1.50
2022-11-28T02:20:40.105Z,-1.60
2022-11-28T02:23:39.418Z,-1.60
2022-11-28T02:26:09.295Z,-1.60
2022-11-28T02:28:51.223Z,-1.70
2022-11-28T02:31:39.300Z,-1.60
2022-11-28T02:34:13.870Z,-1.60
2022-11-28T02:36:55.807Z,-1.60
2022-11-28T02:39:22.910Z,-1.60
2022-11-28T02:42:38.344Z,-1.70
2022-11-28T02:45:13.640Z,-1.60
2022-11-28T02:47:48.958Z,-1.70
2022-11-28T02:50:42.053Z,-1.60
2022-11-28T02:53:20.378Z,-1.70
2022-11-28T02:55:47.721Z,-1.10
2022-11-28T02:58:14.722Z,-1.60
2022-11-28T03:00:44.186Z,-1.60
2022-11-28T03:03:47.239Z,-1.50
2022-11-28T03:06:43.072Z,-1.80
2022-11-28T03:09:45.618Z,-1.50
2022-11-28T03:12:51.633Z,-1.40
2022-11-28T03:15:24.081Z,-1.40
2022-11-28T03:18:17.747Z,-1.30
2022-11-28T03:20:56.463Z,-1.40
2022-11-28T03:23:43.966Z,-1.40
2022-11-28T03:26:26.105Z,-1.50
2022-11-28T03:29:03.108Z,-1.50
2022-11-28T03:31:39.253Z,-1.50
2022-11-28T03:34:11.367Z,-1.40
2022-11-28T03:36:45.017Z,-1.30
2022-11-28T03:39:19.058Z,-1.30
2022-11-28T03:42:03.192Z,-1.30
2022-11-28T03:44:44.923Z,-1.30
2022-11-28T03:47:12.136Z,-1.40
2022-11-28T03:49:42.854Z,-1.40
2022-11-28T03:52:18.657Z,-1.40
2022-11-28T03:55:00.668Z,-1.50
2022-11-28T03:58:08.852Z,-1.40
2022-11-28T04:00:42.914Z,-1.50
2022-11-28T04:03:20.817Z,-1.40
2022-11-28T04:05:54.324Z,-1.40
2022-11-28T04:08:39.851Z,-0.50
2022-11-28T04:11:15.777Z,-1.30
2022-11-28T04:13:58.247Z,-1.40
2022-11-28T04:16:36.109Z,-1.40
2022-11-28T04:19:34.080Z,-1.50
2022-11-28T04:22:39.429Z,-1.40
2022-11-28T04:25:11.205Z,-1.40
2022-11-28T04:27:42.483Z,-1.40
2022-11-28T04:30:10.659Z,-1.50
2022-11-28T04:32:43.181Z,-1.50
2022-11-28T04:35:16.975Z,-1.50
2022-11-28T04:37:48.860Z,-1.50
2022-11-28T04:40:18.521Z,-1.50
2022-11-28T04:42:53.410Z,-1.60
2022-11-28T04:45:46.781Z,-1.60
2022-11-28T04:48:14.042Z,-1.50
2022-11-28T04:50:52.883Z,-1.50
2022-11-28T04:53:35.737Z,-1.50
2022-11-28T04:56:12.166Z,-1.50
2022-11-28T04:58:43.209Z,-1.50
2022-11-28T05:01:15.855Z,-1.40
2022-11-28T05:03:43.128Z,-1.30
2022-11-28T05:06:10.065Z,-1.00
2022-11-28T05:08:37.684Z,-1.40
2022-11-28T05:11:04.824Z,-1.20
2022-11-28T05:13:31.770Z,-1.40
2022-11-28T05:16:01.112Z,-1.30
2022-11-28T05:18:28.183Z,-1.30
2022-11-28T05:20:55.545Z,-1.40
2022-11-28T05:23:22.506Z,-1.30
2022-11-28T05:25:49.543Z,-1.30
2022-11-28T05:28:16.918Z,-1.40
2022-11-28T05:30:44.197Z,-1.50
2022-11-28T05:33:11.307Z,-1.50
2022-11-28T05:35:40.370Z,-1.70
2022-11-28T05:38:13.584Z,-1.50
2022-11-28T05:40:46.063Z,-1.50
2022-11-28T05:43:14.221Z,-1.50
2022-11-28T05:45:43.167Z,-1.30
2022-11-28T05:48:12.171Z,-1.30
2022-11-28T05:50:51.550Z,-1.40
2022-11-28T05:53:47.870Z,0.00
2022-11-28T05:57:03.955Z,-1.20
2022-11-28T06:00:08.224Z,-1.70
2022-11-28T06:03:06.357Z,-1.30
2022-11-28T06:06:09.258Z,-1.40
2022-11-28T06:26:13.827Z,-1.50
2022-11-28T06:29:45.052Z,-1.40
2022-11-28T06:32:10.964Z,-2.00
2022-11-28T06:35:00.086Z,-1.50
2022-11-28T06:41:14.227Z,0.20
2022-11-28T06:43:43.332Z,-1.30
2022-11-28T06:46:24.887Z,-1.40
2022-11-28T06:49:00.986Z,-1.30
2022-11-28T06:55:26.120Z,-1.00
2022-11-28T07:42:13.768Z,-1.10
2022-11-28T07:46:00.011Z,-2.10
2022-11-28T07:53:36.283Z,-1.70
2022-11-28T08:00:11.106Z,-1.10
2022-11-28T08:11:50.741Z,-1.40
2022-11-28T08:34:09.805Z,-0.80
2022-11-28T08:36:50.076Z,-0.70
2022-11-28T08:39:29.269Z,-0.60
2022-11-28T08:42:05.571Z,-0.60
2022-11-28T08:45:51.021Z,-0.60
2022-11-28T08:48:40.552Z,-0.70
2022-11-28T08:54:49.506Z,-0.50
2022-11-28T08:57:26.954Z,-0.40
2022-11-28T09:00:42.291Z,-0.40
2022-11-28T09:03:24.100Z,-0.20
2022-11-28T09:06:03.079Z,-0.30
2022-11-28T09:08:41.067Z,-0.20
2022-11-28T09:11:13.694Z,-0.10
2022-11-28T09:13:47.223Z,-0.10
2022-11-28T09:16:15.841Z,-0.20
2022-11-28T09:18:52.023Z,-0.10
2022-11-28T09:21:20.884Z,-0.10
2022-11-28T09:26:47.164Z,0.00
2022-11-28T09:29:19.528Z,0.00
2022-11-28T09:31:54.216Z,0.10
2022-11-28T09:34:27.074Z,0.10
2022-11-28T09:40:11.976Z,0.00
2022-11-28T09:42:49.066Z,0.00
2022-11-28T09:45:24.679Z,0.00
2022-11-28T09:51:27.932Z,0.20
2022-11-28T09:54:33.564Z,0.50
2022-11-28T09:57:09.965Z,0.40
2022-11-28T10:02:44.178Z,1.00
2022-11-28T10:05:41.992Z,0.90
2022-11-28T10:08:27.411Z,1.30
2022-11-28T10:11:49.215Z,1.50
2022-11-28T10:14:41.032Z,1.60
2022-11-28T10:20:54.326Z,1.20
2022-11-28T10:23:33.345Z,1.10
2022-11-28T10:26:18.696Z,1.40
2022-11-28T10:29:03.371Z,1.60
2022-11-28T10:32:04.112Z,1.40
2022-11-28T10:34:50.830Z,1.40
2022-11-28T10:37:28.240Z,1.30
2022-11-28T10:40:11.975Z,1.30
2022-11-28T10:43:15.733Z,1.20
2022-11-28T10:54:03.142Z,1.00
2022-11-28T11:04:21.527Z,0.90
2022-11-28T11:07:36.418Z,0.90
2022-11-28T11:14:45.740Z,0.80
2022-11-28T11:20:46.218Z,0.50
2022-11-28T11:33:57.082Z,0.80
2022-11-28T11:43:56.893Z,0.90
2022-11-28T11:46:43.405Z,0.90
2022-11-28T11:49:53.997Z,0.90
2022-11-28T11:52:28.997Z,0.60
2022-11-28T11:54:59.952Z,0.90
2022-11-28T11:57:33.901Z,0.90
2022-11-28T12:00:29.548Z,1.00
2022-11-28T12:03:01.399Z,1.00
2022-11-28T12:06:14.557Z,0.90
2022-11-28T12:08:55.993Z,1.00
2022-11-28T12:11:46.766Z,0.90
2022-11-28T12:14:48.987Z,0.80
2022-11-28T12:17:52.393Z,0.80
2022-11-28T12:21:17.601Z,0.80
2022-11-28T12:24:00.151Z,0.80
2022-11-28T12:26:33.411Z,0.80
2022-11-28T12:29:53.661Z,0.70
2022-11-28T12:32:29.705Z,0.70
2022-11-28T12:35:10.748Z,0.70
2022-11-28T12:38:11.335Z,0.70
2022-11-28T12:41:18.395Z,0.70
2022-11-28T12:43:58.710Z,0.70
2022-11-28T12:46:48.226Z,0.70
2022-11-28T12:49:53.026Z,0.70
2022-11-28T12:52:38.621Z,0.70
2022-11-28T12:55:18.031Z,0.70
2022-11-28T12:58:26.694Z,0.60
2022-11-28T13:01:39.616Z,0.60
2022-11-28T13:04:16.859Z,0.50
2022-11-28T13:07:05.831Z,0.70
2022-11-28T13:09:34.512Z,0.70
2022-11-28T13:12:08.160Z,0.60
2022-11-28T13:15:01.174Z,0.60
2022-11-28T13:17:45.217Z,0.60
2022-11-28T13:20:43.246Z,0.60
2022-11-28T13:23:27.163Z,0.50
2022-11-28T13:26:06.070Z,0.50
2022-11-28T13:28:52.108Z,0.50
2022-11-28T13:31:22.622Z,0.50
2022-11-28T13:33:55.313Z,0.50
2022-11-28T13:40:05.862Z,0.40
2022-11-28T13:45:36.231Z,0.30
2022-11-28T13:51:34.112Z,0.20
2022-11-28T13:54:19.420Z,0.20
2022-11-28T13:56:49.515Z,0.20
2022-11-28T13:59:25.356Z,0.30
2022-11-28T14:02:05.374Z,0.10
2022-11-28T14:04:33.556Z,0.30
2022-11-28T14:07:06.804Z,0.20
2022-11-28T14:09:55.161Z,0.10
2022-11-28T14:12:49.570Z,0.10
2022-11-28T14:15:36.844Z,0.10
2022-11-28T14:18:31.551Z,0.10
2022-11-28T14:21:03.292Z,0.10
2022-11-28T14:23:48.749Z,0.00
2022-11-28T14:26:27.076Z,0.10
2022-11-28T14:28:54.610Z,0.10
2022-11-28T14:32:28.045Z,0.20
2022-11-28T14:34:48.322Z,0.10
2022-11-28T14:37:27.485Z,0.10
2022-11-28T14:39:56.030Z,0.10
2022-11-28T14:45:45.347Z,0.20
2022-11-28T14:48:24.569Z,0.10
2022-11-28T14:50:59.325Z,0.20
2022-11-28T14:53:37.330Z,0.10
2022-11-28T14:56:16.348Z,0.10
2022-11-28T14:58:51.265Z,0.20
2022-11-28T15:01:55.161Z,0.10
2022-11-28T15:04:51.492Z,0.10
2022-11-28T15:07:38.932Z,0.10
2022-11-28T15:10:44.956Z,0.10
2022-11-28T15:13:39.662Z,0.20
2022-11-28T15:16:10.618Z,0.20
2022-11-28T15:18:42.342Z,0.10
2022-11-28T15:21:16.517Z,0.10
2022-11-28T15:23:43.889Z,0.10
2022-11-28T15:26:27.194Z,0.20
2022-11-28T15:29:18.747Z,0.20
2022-11-28T15:31:50.009Z,0.10
2022-11-28T15:34:26.276Z,0.00
2022-11-28T15:36:55.517Z,0.00
2022-11-28T15:39:35.318Z,0.10
2022-11-28T15:42:04.766Z,0.10
2022-11-28T15:44:33.266Z,0.00
2022-11-28T15:47:00.618Z,0.20
2022-11-28T15:49:32.823Z,0.20
2022-11-28T15:52:02.908Z,0.20
2022-11-28T15:54:38.081Z,0.10
2022-11-28T15:57:06.765Z,0.00
2022-11-28T15:59:34.260Z,0.10
2022-11-28T16:02:14.689Z,0.10
2022-11-28T16:04:43.431Z,0.10
2022-11-28T16:07:15.136Z,0.10
2022-11-28T16:09:55.463Z,0.10
2022-11-28T16:12:23.671Z,0.20
2022-11-28T16:14:58.394Z,0.20
2022-11-28T16:17:34.683Z,0.00
2022-11-28T16:20:03.277Z,0.10
2022-11-28T16:22:36.472Z,0.10
2022-11-28T16:25:20.750Z,0.10
2022-11-28T16:27:49.395Z,0.20
2022-11-28T16:30:43.463Z,0.10
2022-11-28T16:33:45.482Z,0.10
2022-11-28T16:36:15.995Z,0.10
2022-11-28T16:38:44.009Z,0.00
2022-11-28T16:41:22.630Z,0.10
2022-11-28T16:43:55.598Z,0.00
2022-11-28T16:46:26.095Z,0.00
2022-11-28T16:48:59.071Z,0.00
2022-11-28T16:51:28.285Z,0.00
2022-11-28T16:53:59.664Z,0.00
2022-11-28T16:56:29.895Z,0.00
2022-11-28T16:59:15.188Z,0.10
2022-11-28T17:01:45.099Z,0.20
2022-11-28T17:04:22.775Z,0.10
2022-11-28T17:06:51.539Z,0.10
2022-11-28T17:09:19.358Z,0.60
2022-11-28T17:12:07.903Z,0.10
2022-11-28T17:14:35.575Z,0.10
2022-11-28T17:17:05.911Z,0.00
2022-11-28T17:19:33.116Z,0.10
2022-11-28T17:22:03.054Z,0.20
2022-11-28T17:24:38.878Z,0.20
2022-11-28T17:27:08.160Z,0.20
2022-11-28T17:29:35.926Z,0.20
2022-11-28T17:32:03.842Z,0.10
2022-11-28T17:34:32.877Z,0.10
2022-11-28T17:37:04.634Z,0.00
2022-11-28T17:39:32.025Z,0.20
2022-11-28T17:41:59.720Z,0.20
2022-11-28T17:44:39.792Z,0.20
2022-11-28T17:47:07.694Z,0.20
2022-11-28T17:49:35.087Z,0.20
2022-11-28T17:52:02.698Z,0.20
2022-11-28T17:54:31.438Z,0.10
2022-11-28T17:56:58.620Z,0.20
2022-11-28T17:59:27.487Z,0.10
2022-11-28T18:01:55.148Z,0.10
2022-11-28T18:04:23.010Z,0.00
2022-11-28T18:06:50.360Z,0.00
2022-11-28T18:09:17.859Z,0.10
2022-11-28T18:11:46.727Z,0.10
2022-11-28T18:14:14.387Z,0.10
2022-11-28T18:16:44.137Z,0.10
2022-11-28T18:19:11.845Z,0.10
2022-11-28T18:21:39.572Z,0.10
2022-11-28T18:24:07.195Z,0.10
2022-11-28T18:26:36.364Z,0.10
2022-11-28T18:29:03.863Z,0.10
2022-11-28T18:31:31.711Z,0.10
2022-11-28T18:34:04.405Z,0.20
2022-11-28T18:36:33.858Z,0.20
2022-11-28T18:39:04.273Z,0.10
2022-11-28T18:41:31.670Z,0.10
2022-11-28T18:44:04.741Z,0.00
2022-11-28T18:46:34.592Z,0.10
2022-11-28T18:49:02.029Z,0.20
2022-11-28T18:51:34.555Z,0.20
2022-11-28T18:54:04.943Z,0.30
2022-11-28T18:56:33.456Z,0.20
2022-11-28T18:59:00.986Z,0.20
2022-11-28T19:01:31.919Z,0.30
2022-11-28T19:04:02.078Z,0.20
2022-11-28T19:06:29.807Z,0.20
2022-11-28T19:08:59.599Z,0.20
2022-11-28T19:11:29.034Z,0.20
2022-11-28T19:13:56.940Z,0.10
2022-11-28T19:16:29.912Z,0.20
2022-11-28T19:18:58.092Z,0.20
2022-11-28T19:21:28.344Z,0.10
2022-11-28T19:23:56.794Z,0.10
2022-11-28T19:26:26.207Z,0.20
2022-11-28T19:28:54.155Z,0.20
2022-11-28T19:31:28.382Z,0.20
2022-11-28T19:34:06.718Z,0.20
2022-11-28T19:36:38.181Z,0.30
2022-11-28T19:39:07.562Z,0.30
2022-11-28T19:41:35.843Z,0.20
2022-11-28T19:44:03.063Z,0.30
2022-11-28T19:46:35.757Z,0.40
2022-11-28T19:49:07.227Z,0.30
2022-11-28T19:51:34.930Z,0.60
2022-11-28T19:54:03.778Z,0.30
2022-11-28T19:56:31.606Z,0.20
2022-11-28T19:59:00.515Z,0.30
2022-11-28T20:01:28.827Z,0.30
2022-11-28T20:03:57.354Z,0.20
2022-11-28T20:06:31.043Z,0.20
2022-11-28T20:09:10.716Z,0.40
2022-11-28T20:11:39.444Z,0.30
2022-11-28T20:14:13.580Z,0.30
2022-11-28T20:16:41.322Z,0.30
2022-11-28T20:19:08.714Z,0.20
2022-11-28T20:21:36.578Z,0.30
2022-11-28T20:24:07.978Z,0.20
2022-11-28T20:26:38.635Z,0.20
2022-11-28T20:29:06.496Z,0.30
2022-11-28T20:31:36.994Z,0.30
2022-11-28T20:34:05.530Z,0.30
2022-11-28T20:36:33.160Z,0.30
2022-11-28T20:39:01.205Z,0.40
2022-11-28T20:41:29.140Z,0.30
2022-11-28T20:43:56.434Z,0.40
2022-11-28T20:46:30.565Z,0.50
2022-11-28T20:49:00.134Z,0.40
2022-11-28T20:51:29.376Z,0.50
2022-11-28T20:53:58.395Z,0.40
2022-11-28T20:56:29.845Z,0.30
2022-11-28T20:59:01.108Z,0.30
2022-11-28T21:01:35.353Z,0.20
2022-11-28T21:04:04.482Z,0.30
2022-11-28T21:06:32.792Z,0.30
2022-11-28T21:09:00.124Z,0.30
2022-11-28T21:14:19.289Z,0.40
2022-11-28T21:16:46.517Z,0.40
2022-11-28T21:19:13.782Z,0.40
2022-11-28T21:21:43.071Z,0.40
2022-11-28T21:24:13.150Z,0.40
2022-11-28T21:26:46.543Z,0.30
2022-11-28T21:29:16.632Z,0.30
2022-11-28T21:31:45.212Z,0.40
2022-11-28T21:34:14.808Z,0.40
2022-11-28T21:36:42.489Z,0.30
2022-11-28T21:39:14.234Z,0.30
2022-11-28T21:41:41.801Z,0.30
2022-11-28T21:44:09.016Z,0.30
2022-11-28T21:46:35.972Z,0.40
2022-11-28T21:49:03.026Z,0.30
2022-11-28T21:51:30.325Z,0.30
2022-11-28T21:53:58.046Z,0.30
2022-11-28T21:56:25.607Z,0.40
2022-11-28T21:58:52.675Z,0.30
2022-11-28T22:01:21.695Z,0.40
2022-11-28T22:03:49.438Z,0.40
2022-11-28T22:06:20.600Z,0.30
2022-11-28T22:08:48.929Z,0.40
2022-11-28T22:11:16.704Z,0.40
2022-11-28T22:13:47.844Z,0.40
2022-11-28T22:16:27.255Z,0.50
2022-11-28T22:18:56.445Z,0.40
2022-11-28T22:24:11.375Z,0.50
2022-11-28T22:26:39.215Z,0.40
2022-11-28T22:29:06.456Z,0.40
2022-11-28T22:31:33.704Z,0.40
2022-11-28T22:34:00.756Z,0.40
2022-11-28T22:36:27.705Z,0.50
2022-11-28T22:38:56.608Z,0.50
2022-11-28T22:41:28.781Z,0.50
2022-11-28T22:43:59.724Z,0.50
2022-11-28T22:46:27.509Z,0.50
2022-11-28T22:48:54.685Z,0.50
2022-11-28T22:51:24.478Z,0.50
2022-11-28T22:53:58.796Z,0.50
2022-11-28T22:56:26.263Z,0.40
2022-11-28T22:58:53.223Z,0.50
2022-11-28T23:01:24.199Z,0.50
2022-11-28T23:03:51.863Z,0.40
2022-11-28T23:06:21.807Z,0.50
2022-11-28T23:08:50.589Z,0.50
2022-11-28T23:11:22.819Z,0.50
2022-11-28T23:13:50.382Z,0.50
2022-11-28T23:16:23.054Z,0.50
2022-11-28T23:18:52.778Z,0.40
2022-11-28T23:21:21.245Z,0.40
2022-11-28T23:23:48.534Z,0.50
2022-11-28T23:26:18.527Z,0.50
2022-11-28T23:28:45.949Z,0.50
2022-11-28T23:31:16.146Z,0.60
2022-11-28T23:33:44.018Z,0.40
2022-11-28T23:36:16.370Z,0.50
2022-11-28T23:38:44.336Z,0.50
2022-11-28T23:41:12.328Z,0.40
2022-11-28T23:43:40.279Z,0.50
2022-11-28T23:46:08.827Z,0.40
2022-11-28T23:48:36.142Z,0.50
2022-11-28T23:51:03.738Z,0.50
2022-11-28T23:53:30.963Z,0.50
2022-11-28T23:56:04.456Z,0.40
2022-11-28T23:58:31.985Z,0.50
